createdAt,value
2023-05-10T00:01:49.980Z,9.39
2023-05-10T00:04:42.307Z,9.45
2023-05-10T00:07:28.218Z,9.42
2023-05-10T00:10:21.776Z,9.42
2023-05-10T00:13:07.938Z,9.28
2023-05-10T00:16:00.026Z,9.14
2023-05-10T00:19:05.130Z,9.18
2023-05-10T00:22:11.220Z,9.35
2023-05-10T00:25:16.569Z,9.20
2023-05-10T00:28:21.524Z,9.32
2023-05-10T00:31:27.990Z,9.32
2023-05-10T00:34:33.765Z,9.29
2023-05-10T00:37:39.282Z,9.42
2023-05-10T00:40:45.573Z,9.52
2023-05-10T00:43:53.167Z,9.55
2023-05-10T00:46:58.523Z,9.48
2023-05-10T00:50:04.099Z,9.33
2023-05-10T00:53:09.652Z,9.39
2023-05-10T00:56:16.065Z,9.55
2023-05-10T00:59:21.226Z,9.42
2023-05-10T01:02:21.237Z,9.32
2023-05-10T01:05:28.158Z,9.18
2023-05-10T01:08:33.793Z,9.36
2023-05-10T01:11:39.094Z,9.12
2023-05-10T01:14:44.322Z,9.20
2023-05-10T01:17:50.443Z,9.38
2023-05-10T01:20:59.372Z,9.36
2023-05-10T01:24:53.479Z,9.32
2023-05-10T01:28:45.135Z,9.30
2023-05-10T01:32:23.631Z,9.13
2023-05-10T01:35:41.977Z,8.99
2023-05-10T01:39:09.818Z,8.85
2023-05-10T01:42:24.418Z,8.84
2023-05-10T01:45:54.391Z,8.68
2023-05-10T01:49:06.299Z,8.84
2023-05-10T01:52:23.517Z,8.89
2023-05-10T01:55:30.472Z,8.96
2023-05-10T01:58:47.178Z,9.07
2023-05-10T02:01:53.122Z,9.06
2023-05-10T02:04:59.159Z,9.25
2023-05-10T02:08:05.233Z,9.39
2023-05-10T02:11:12.220Z,9.35
2023-05-10T02:14:18.717Z,9.37
2023-05-10T02:17:24.821Z,9.45
2023-05-10T02:20:30.136Z,9.50
2023-05-10T02:23:36.920Z,9.32
2023-05-10T02:26:42.443Z,9.33
2023-05-10T02:29:49.276Z,9.20
2023-05-10T02:32:54.773Z,9.20
2023-05-10T02:36:00.404Z,9.45
2023-05-10T02:39:07.796Z,9.40
2023-05-10T02:42:13.942Z,9.26
2023-05-10T02:45:26.510Z,9.25
2023-05-10T02:48:25.221Z,9.21
2023-05-10T02:51:21.991Z,9.26
2023-05-10T02:54:36.666Z,9.23
2023-05-10T02:57:44.041Z,9.12
2023-05-10T03:00:48.763Z,9.36
2023-05-10T03:03:54.915Z,9.08
2023-05-10T03:07:00.703Z,9.10
2023-05-10T03:10:06.434Z,9.04
2023-05-10T03:13:38.371Z,8.94
2023-05-10T03:16:51.258Z,9.09
2023-05-10T03:20:10.342Z,9.06
2023-05-10T03:23:39.749Z,9.20
2023-05-10T03:26:38.286Z,9.34
2023-05-10T03:29:46.749Z,9.58
2023-05-10T03:32:53.704Z,9.58
2023-05-10T03:36:01.312Z,9.71
2023-05-10T03:39:07.144Z,9.83
2023-05-10T03:42:12.453Z,10.19
2023-05-10T03:45:18.121Z,10.45
2023-05-10T03:48:23.829Z,10.53
2023-05-10T03:51:30.249Z,10.73
2023-05-10T03:54:34.961Z,10.93
2023-05-10T03:57:41.100Z,11.10
2023-05-10T04:00:48.508Z,11.08
2023-05-10T04:03:53.343Z,11.20
2023-05-10T04:06:59.511Z,11.36
2023-05-10T04:10:04.414Z,11.33
2023-05-10T04:13:10.598Z,11.50
2023-05-10T04:16:17.287Z,11.64
2023-05-10T04:19:22.986Z,11.71
2023-05-10T04:22:28.862Z,11.60
2023-05-10T04:25:34.885Z,11.66
2023-05-10T04:28:41.196Z,11.82
2023-05-10T04:31:46.408Z,12.04
2023-05-10T04:34:53.256Z,12.07
2023-05-10T04:37:59.279Z,12.09
2023-05-10T04:41:05.140Z,12.20
2023-05-10T04:44:10.378Z,12.17
2023-05-10T04:47:11.267Z,12.30
2023-05-10T04:50:15.059Z,12.24
2023-05-10T04:53:21.627Z,12.38
2023-05-10T04:56:27.504Z,12.59
2023-05-10T04:59:34.148Z,12.64
2023-05-10T05:02:40.724Z,12.89
2023-05-10T05:05:46.462Z,13.12
2023-05-10T05:08:53.124Z,13.29
2023-05-10T05:11:58.695Z,13.48
2023-05-10T05:15:04.814Z,13.59
2023-05-10T05:18:10.608Z,13.66
2023-05-10T05:21:15.452Z,13.74
2023-05-10T05:24:21.900Z,13.86
2023-05-10T05:27:30.365Z,13.93
2023-05-10T05:30:35.946Z,14.04
2023-05-10T05:33:42.248Z,13.85
2023-05-10T05:36:47.973Z,13.80
2023-05-10T05:39:53.268Z,13.72
2023-05-10T05:43:00.040Z,13.75
2023-05-10T05:46:07.615Z,13.85
2023-05-10T05:49:12.557Z,14.04
2023-05-10T05:52:19.137Z,14.17
2023-05-10T05:55:25.158Z,14.11
2023-05-10T05:58:31.209Z,14.04
2023-05-10T06:01:36.920Z,13.96
2023-05-10T06:04:44.653Z,14.15
2023-05-10T06:07:51.908Z,14.22
2023-05-10T06:10:58.509Z,14.31
2023-05-10T06:14:04.663Z,14.19
2023-05-10T06:17:12.198Z,14.13
2023-05-10T06:20:17.741Z,14.22
2023-05-10T06:23:22.957Z,14.53
2023-05-10T06:26:28.597Z,14.31
2023-05-10T06:29:34.208Z,14.35
2023-05-10T06:32:40.073Z,14.37
2023-05-10T06:35:46.732Z,14.43
2023-05-10T06:38:53.705Z,14.39
2023-05-10T06:41:59.833Z,14.46
2023-05-10T06:45:05.410Z,14.58
2023-05-10T06:48:11.629Z,14.61
2023-05-10T06:51:18.349Z,14.68
2023-05-10T06:54:24.378Z,14.93
2023-05-10T06:57:32.204Z,15.04
2023-05-10T07:00:39.096Z,15.06
2023-05-10T07:03:44.288Z,15.20
2023-05-10T07:06:49.010Z,15.23
2023-05-10T07:09:55.547Z,15.31
2023-05-10T07:13:01.631Z,15.36
2023-05-10T07:16:08.359Z,15.43
2023-05-10T07:19:14.287Z,15.45
2023-05-10T07:22:19.940Z,15.51
2023-05-10T07:25:25.250Z,15.48
2023-05-10T07:28:33.342Z,15.45
2023-05-10T07:31:33.670Z,15.51
2023-05-10T07:34:39.408Z,15.73
2023-05-10T07:37:44.403Z,15.88
2023-05-10T07:40:50.186Z,15.76
2023-05-10T07:43:56.311Z,15.57
2023-05-10T07:47:01.845Z,15.64
2023-05-10T07:50:07.761Z,15.69
2023-05-10T07:53:13.877Z,15.70
2023-05-10T07:56:40.710Z,15.66
2023-05-10T07:59:46.326Z,15.82
2023-05-10T08:02:53.075Z,15.88
2023-05-10T08:06:00.697Z,16.05
2023-05-10T08:09:08.291Z,16.19
2023-05-10T08:12:14.674Z,16.44
2023-05-10T08:15:20.988Z,16.49
2023-05-10T08:18:26.081Z,16.42
2023-05-10T08:21:32.186Z,16.25
2023-05-10T08:24:37.819Z,15.96
2023-05-10T08:27:43.747Z,15.81
2023-05-10T08:30:49.567Z,15.83
2023-05-10T08:33:56.364Z,15.80
2023-05-10T08:37:01.918Z,15.94
2023-05-10T08:40:08.629Z,15.95
2023-05-10T08:43:27.100Z,15.88
2023-05-10T08:46:33.165Z,15.53
2023-05-10T08:49:38.637Z,15.41
2023-05-10T08:52:44.520Z,15.37
2023-05-10T08:55:50.502Z,15.44
2023-05-10T08:58:57.071Z,15.43
2023-05-10T09:02:02.955Z,15.52
2023-05-10T09:05:08.880Z,15.44
2023-05-10T09:08:14.485Z,15.44
2023-05-10T09:11:20.913Z,15.55
2023-05-10T09:14:26.513Z,15.52
2023-05-10T09:17:32.097Z,15.60
2023-05-10T09:20:39.202Z,15.78
2023-05-10T09:23:46.132Z,15.58
2023-05-10T09:27:02.457Z,15.69
2023-05-10T09:30:08.207Z,15.71
2023-05-10T09:33:14.015Z,15.50
2023-05-10T09:36:22.964Z,15.38
2023-05-10T09:39:28.184Z,15.05
2023-05-10T09:42:34.537Z,14.93
2023-05-10T09:45:46.079Z,15.13
2023-05-10T09:48:59.395Z,15.11
2023-05-10T09:52:20.151Z,15.26
2023-05-10T09:55:26.725Z,15.46
2023-05-10T09:58:32.614Z,15.72
2023-05-10T10:01:39.811Z,16.27
2023-05-10T10:04:45.918Z,16.27
2023-05-10T10:07:50.508Z,16.16
2023-05-10T10:10:48.813Z,15.95
2023-05-10T10:13:41.732Z,15.83
2023-05-10T10:16:59.589Z,15.68
2023-05-10T10:19:54.047Z,15.85
2023-05-10T10:23:00.013Z,15.71
2023-05-10T10:26:05.376Z,15.90
2023-05-10T10:29:30.095Z,16.19
2023-05-10T10:32:55.201Z,16.47
2023-05-10T10:36:01.370Z,16.35
2023-05-10T10:39:15.000Z,16.32
2023-05-10T10:42:20.214Z,16.39
2023-05-10T10:45:28.721Z,16.50
2023-05-10T10:48:38.869Z,16.58
2023-05-10T10:51:45.679Z,16.58
2023-05-10T10:54:52.330Z,16.79
2023-05-10T10:58:10.828Z,16.97
2023-05-10T11:01:31.577Z,17.03
2023-05-10T11:04:37.455Z,17.17
2023-05-10T11:07:42.721Z,17.18
2023-05-10T11:10:49.615Z,17.14
2023-05-10T11:14:04.808Z,16.88
2023-05-10T11:17:10.317Z,16.69
2023-05-10T11:20:28.327Z,16.58
2023-05-10T11:23:34.798Z,16.63
2023-05-10T11:26:46.407Z,16.77
2023-05-10T11:29:50.282Z,16.69
2023-05-10T11:32:55.759Z,16.87
2023-05-10T11:36:01.818Z,16.91
2023-05-10T11:39:09.025Z,16.91
2023-05-10T11:42:16.520Z,16.98
2023-05-10T11:45:22.315Z,16.97
2023-05-10T11:48:29.552Z,17.19
2023-05-10T11:51:33.540Z,17.45
2023-05-10T11:54:39.152Z,17.77
2023-05-10T11:57:46.818Z,18.03
2023-05-10T12:00:52.131Z,18.19
2023-05-10T12:03:58.879Z,18.11
2023-05-10T12:07:04.360Z,17.99
2023-05-10T12:10:29.602Z,17.85
2023-05-10T12:13:36.121Z,17.85
2023-05-10T12:16:43.637Z,17.83
2023-05-10T12:19:55.042Z,17.71
2023-05-10T12:23:02.828Z,17.70
2023-05-10T12:26:08.953Z,17.79
2023-05-10T12:29:34.541Z,17.70
2023-05-10T12:32:54.893Z,17.21
2023-05-10T12:36:04.756Z,17.49
2023-05-10T12:39:19.965Z,17.78
2023-05-10T12:42:18.986Z,17.47
2023-05-10T12:45:25.805Z,17.32
2023-05-10T12:48:30.657Z,16.35
2023-05-10T12:51:37.215Z,16.13
2023-05-10T12:54:42.526Z,15.89
2023-05-10T12:57:47.998Z,16.01
2023-05-10T13:00:54.723Z,16.08
2023-05-10T13:04:00.800Z,16.20
2023-05-10T13:07:06.478Z,16.06
2023-05-10T13:10:13.377Z,16.00
2023-05-10T13:13:19.995Z,16.01
2023-05-10T13:16:26.863Z,15.92
2023-05-10T13:19:33.550Z,15.95
2023-05-10T13:22:40.777Z,15.91
2023-05-10T13:25:47.032Z,15.92
2023-05-10T13:28:53.381Z,16.10
2023-05-10T13:31:58.377Z,16.09
2023-05-10T13:35:03.280Z,16.05
2023-05-10T13:38:09.579Z,16.52
2023-05-10T13:41:14.836Z,16.56
2023-05-10T13:44:20.971Z,16.57
2023-05-10T13:47:26.958Z,16.29
2023-05-10T13:50:33.386Z,16.83
2023-05-10T13:53:38.544Z,16.93
2023-05-10T13:56:44.095Z,17.05
2023-05-10T13:59:50.309Z,17.04
2023-05-10T14:02:56.466Z,17.05
2023-05-10T14:06:03.263Z,16.41
2023-05-10T14:09:09.249Z,16.48
2023-05-10T14:12:15.013Z,16.36
2023-05-10T14:15:21.656Z,16.40
2023-05-10T14:18:26.746Z,16.17
2023-05-10T14:21:35.199Z,16.14
2023-05-10T14:24:45.146Z,16.39
2023-05-10T14:27:56.223Z,15.89
2023-05-10T14:31:02.798Z,15.95
2023-05-10T14:34:07.489Z,16.25
2023-05-10T14:37:13.040Z,16.47
2023-05-10T14:40:18.475Z,16.45
2023-05-10T14:43:24.000Z,16.33
2023-05-10T14:46:29.038Z,16.31
2023-05-10T14:49:34.782Z,15.75
2023-05-10T14:52:41.408Z,15.97
2023-05-10T14:55:48.385Z,15.65
2023-05-10T14:58:54.985Z,15.79
2023-05-10T15:02:01.084Z,15.93
2023-05-10T15:05:07.231Z,15.87
2023-05-10T15:08:14.057Z,15.26
2023-05-10T15:11:19.793Z,15.32
2023-05-10T15:14:26.482Z,15.85
2023-05-10T15:17:33.274Z,15.86
2023-05-10T15:20:39.906Z,15.89
2023-05-10T15:23:46.051Z,15.81
2023-05-10T15:26:51.655Z,15.84
2023-05-10T15:29:57.221Z,15.36
2023-05-10T15:33:02.989Z,15.56
2023-05-10T15:36:09.265Z,15.81
2023-05-10T15:39:15.251Z,15.48
2023-05-10T15:42:21.162Z,15.77
2023-05-10T15:45:26.797Z,15.74
2023-05-10T15:48:32.370Z,15.66
2023-05-10T15:51:37.473Z,15.39
2023-05-10T15:54:43.259Z,15.44
2023-05-10T15:57:48.823Z,15.36
2023-05-10T16:00:54.646Z,15.27
2023-05-10T16:04:00.388Z,15.11
2023-05-10T16:07:05.849Z,14.91
2023-05-10T16:10:12.958Z,14.92
2023-05-10T16:13:21.004Z,15.06
2023-05-10T16:16:26.542Z,14.86
2023-05-10T16:19:32.272Z,14.97
2023-05-10T16:22:39.700Z,15.04
2023-05-10T16:25:44.909Z,14.50
2023-05-10T16:28:50.282Z,14.52
2023-05-10T16:31:49.482Z,14.66
2023-05-10T16:34:35.404Z,14.54
2023-05-10T16:37:28.245Z,14.20
2023-05-10T16:40:21.644Z,14.09
2023-05-10T16:43:27.289Z,13.83
2023-05-10T16:46:33.104Z,13.80
2023-05-10T16:49:39.521Z,13.39
2023-05-10T16:52:45.525Z,13.27
2023-05-10T16:55:51.166Z,13.26
2023-05-10T16:58:57.933Z,13.01
2023-05-10T17:02:03.709Z,13.23
2023-05-10T17:05:09.812Z,12.96
2023-05-10T17:08:16.037Z,12.93
2023-05-10T17:11:21.994Z,12.76
2023-05-10T17:14:27.220Z,12.71
2023-05-10T17:17:32.185Z,12.48
2023-05-10T17:20:37.147Z,12.54
2023-05-10T17:23:43.744Z,11.81
2023-05-10T17:26:49.274Z,12.21
2023-05-10T17:29:55.289Z,12.32
2023-05-10T17:33:01.709Z,11.94
2023-05-10T17:36:08.234Z,11.96
2023-05-10T17:39:13.229Z,12.03
2023-05-10T17:42:19.854Z,11.73
2023-05-10T17:45:25.233Z,11.77
2023-05-10T17:48:31.506Z,12.06
2023-05-10T17:51:37.116Z,11.56
2023-05-10T17:54:42.784Z,11.84
2023-05-10T17:57:49.421Z,11.79
2023-05-10T18:00:55.776Z,11.53
2023-05-10T18:04:03.367Z,11.75
2023-05-10T18:07:04.866Z,11.93
2023-05-10T18:10:11.274Z,11.61
2023-05-10T18:13:17.092Z,11.66
2023-05-10T18:16:22.718Z,11.83
2023-05-10T18:19:34.987Z,12.12
2023-05-10T18:22:40.593Z,12.20
2023-05-10T18:25:46.347Z,12.33
2023-05-10T18:28:46.470Z,11.91
2023-05-10T18:31:52.762Z,11.26
2023-05-10T18:34:58.589Z,11.04
2023-05-10T18:38:04.933Z,11.14
2023-05-10T18:41:11.293Z,11.44
2023-05-10T18:44:17.840Z,10.97
2023-05-10T18:47:23.551Z,10.86
2023-05-10T18:50:28.799Z,10.79
2023-05-10T18:53:34.195Z,10.72
2023-05-10T18:56:39.399Z,10.87
2023-05-10T18:59:46.027Z,10.68
2023-05-10T19:02:55.552Z,10.70
2023-05-10T19:06:01.838Z,10.73
2023-05-10T19:09:08.141Z,10.59
2023-05-10T19:12:13.835Z,10.70
2023-05-10T19:15:21.775Z,10.86
2023-05-10T19:18:27.982Z,10.66
2023-05-10T19:21:34.204Z,10.63
2023-05-10T19:24:40.107Z,10.52
2023-05-10T19:27:44.981Z,10.41
2023-05-10T19:30:51.383Z,10.14
2023-05-10T19:33:59.322Z,10.35
2023-05-10T19:37:04.637Z,9.91
2023-05-10T19:40:10.859Z,9.86
2023-05-10T19:43:16.908Z,10.24
2023-05-10T19:46:22.461Z,9.93
2023-05-10T19:49:29.268Z,9.29
2023-05-10T19:52:35.415Z,9.24
2023-05-10T19:55:45.362Z,9.38
2023-05-10T19:58:51.129Z,9.56
2023-05-10T20:01:57.501Z,9.40
2023-05-10T20:05:02.934Z,9.46
2023-05-10T20:08:09.010Z,9.43
2023-05-10T20:11:14.502Z,9.32
2023-05-10T20:14:20.132Z,9.34
2023-05-10T20:17:27.142Z,9.22
2023-05-10T20:20:32.921Z,9.41
2023-05-10T20:23:38.446Z,9.34
2023-05-10T20:26:43.048Z,9.40
2023-05-10T20:29:49.428Z,9.38
2023-05-10T20:32:55.818Z,9.36
2023-05-10T20:36:02.400Z,9.28
2023-05-10T20:39:08.461Z,9.24
2023-05-10T20:42:15.162Z,9.28
2023-05-10T20:45:21.827Z,9.41
2023-05-10T20:48:27.211Z,9.08
2023-05-10T20:51:32.226Z,9.09
2023-05-10T20:54:37.426Z,9.29
2023-05-10T20:57:43.660Z,9.42
2023-05-10T21:00:49.363Z,9.87
2023-05-10T21:03:55.827Z,9.93
2023-05-10T21:07:03.926Z,9.85
2023-05-10T21:10:03.453Z,9.58
2023-05-10T21:13:11.371Z,9.61
2023-05-10T21:16:16.953Z,9.15
2023-05-10T21:19:24.287Z,9.08
2023-05-10T21:22:29.542Z,9.21
2023-05-10T21:25:37.267Z,9.22
2023-05-10T21:28:43.581Z,9.07
2023-05-10T21:31:49.589Z,9.16
2023-05-10T21:34:56.753Z,9.05
2023-05-10T21:38:01.950Z,8.66
2023-05-10T21:41:07.709Z,8.86
2023-05-10T21:44:13.354Z,8.76
